sensor_id;sensor_type;location;lat;lon;timestamp;pressure;altitude;pressure_sealevel;temperature;humidity
55311;BME280;41173;52.634;-8.666;2024-03-08T16:44:34;145749.69;;;7.64;100.00
55311;BME280;41173;52.634;-8.666;2024-03-08T16:47:00;145773.78;;;7.74;100.00
55311;BME280;41173;52.634;-8.666;2024-03-08T16:49:25;145773.78;;;7.74;100.00
55311;BME280;41173;52.634;-8.666;2024-03-08T16:51:51;145799.16;;;7.84;100.00
55311;BME280;41173;52.634;-8.666;2024-03-08T16:54:16;145782.66;;;7.77;100.00
55311;BME280;41173;52.634;-8.666;2024-03-08T16:56:43;145786.47;;;7.79;100.00
55311;BME280;41173;52.634;-8.666;2024-03-08T16:59:10;145790.25;;;7.80;100.00
55311;BME280;41173;52.634;-8.666;2024-03-08T17:01:35;145820.72;;;7.93;100.00
55311;BME280;41173;52.634;-8.666;2024-03-08T17:04:03;145867.66;;;8.12;100.00
55311;BME280;41173;52.634;-8.666;2024-03-08T17:06:29;145824.47;;;7.94;100.00
55311;BME280;41173;52.634;-8.666;2024-03-08T17:08:56;145852.41;;;8.05;100.00
55311;BME280;41173;52.634;-8.666;2024-03-08T17:11:22;145848.59;;;8.04;100.00
55311;BME280;41173;52.634;-8.666;2024-03-08T17:13:47;145827.03;;;7.95;100.00
55311;BME280;41173;52.634;-8.666;2024-03-08T17:16:13;145852.41;;;8.05;100.00
55311;BME280;41173;52.634;-8.666;2024-03-08T17:18:40;145842.28;;;8.01;100.00
55311;BME280;41173;52.634;-8.666;2024-03-08T17:21:05;145821.97;;;7.93;100.00
55311;BME280;41173;52.634;-8.666;2024-03-08T17:23:39;145810.53;;;7.88;100.00
55311;BME280;41173;52.634;-8.666;2024-03-08T17:26:05;145830.84;;;7.97;100.00
55311;BME280;41173;52.634;-8.666;2024-03-08T17:28:32;145813.09;;;7.89;100.00
55311;BME280;41173;52.634;-8.666;2024-03-08T17:31:02;145876.53;;;8.15;100.00
55311;BME280;41173;52.634;-8.666;2024-03-08T17:33:27;145848.59;;;8.04;100.00
55311;BME280;41173;52.634;-8.666;2024-03-08T17:36:00;145829.59;;;7.96;100.00
55311;BME280;41173;52.634;-8.666;2024-03-08T17:38:25;145824.47;;;7.94;100.00
55311;BME280;41173;52.634;-8.666;2024-03-08T17:40:51;145843.53;;;8.02;100.00
55311;BME280;41173;52.634;-8.666;2024-03-08T17:43:16;145821.97;;;7.93;100.00
55311;BME280;41173;52.634;-8.666;2024-03-08T17:45:48;145806.72;;;7.87;100.00
55311;BME280;41173;52.634;-8.666;2024-03-08T17:48:13;145852.41;;;8.05;100.00
55311;BME280;41173;52.634;-8.666;2024-03-08T17:50:42;145827.03;;;7.95;100.00
55311;BME280;41173;52.634;-8.666;2024-03-08T17:53:09;145834.66;;;7.98;100.00
55311;BME280;41173;52.634;-8.666;2024-03-08T17:55:35;145827.03;;;7.95;100.00
55311;BME280;41173;52.634;-8.666;2024-03-08T17:58:02;145843.53;;;8.02;100.00
55311;BME280;41173;52.634;-8.666;2024-03-08T18:00:28;145842.28;;;8.01;100.00
55311;BME280;41173;52.634;-8.666;2024-03-08T18:03:05;145834.66;;;7.98;100.00
55311;BME280;41173;52.634;-8.666;2024-03-08T18:05:33;145846.09;;;8.03;100.00
55311;BME280;41173;52.634;-8.666;2024-03-08T18:08:02;145818.16;;;7.91;100.00
55311;BME280;41173;52.634;-8.666;2024-03-08T18:10:28;145833.41;;;7.98;100.00
55311;BME280;41173;52.634;-8.666;2024-03-08T18:12:59;145830.84;;;7.97;100.00
55311;BME280;41173;52.634;-8.666;2024-03-08T18:15:25;145833.41;;;7.98;100.00
55311;BME280;41173;52.634;-8.666;2024-03-08T18:17:57;145852.41;;;8.05;100.00
55311;BME280;41173;52.634;-8.666;2024-03-08T18:20:29;145851.16;;;8.05;100.00
55311;BME280;41173;52.634;-8.666;2024-03-08T18:22:57;145828.28;;;7.96;100.00
55311;BME280;41173;52.634;-8.666;2024-03-08T18:25:24;145837.16;;;7.99;100.00
55311;BME280;41173;52.634;-8.666;2024-03-08T18:27:52;145806.72;;;7.87;100.00
55311;BME280;41173;52.634;-8.666;2024-03-08T18:30:18;145809.28;;;7.88;100.00
55311;BME280;41173;52.634;-8.666;2024-03-08T18:32:46;145794.03;;;7.82;100.00
55311;BME280;41173;52.634;-8.666;2024-03-08T18:35:15;145813.09;;;7.89;100.00
55311;BME280;41173;52.634;-8.666;2024-03-08T18:37:46;145802.91;;;7.85;100.00
55311;BME280;41173;52.634;-8.666;2024-03-08T18:40:13;145759.81;;;7.68;100.00
55311;BME280;41173;52.634;-8.666;2024-03-08T18:42:39;145805.47;;;7.86;100.00
55311;BME280;41173;52.634;-8.666;2024-03-08T18:45:08;145853.69;;;8.06;100.00
55311;BME280;41173;52.634;-8.666;2024-03-08T18:47:49;145849.88;;;8.04;100.00
55311;BME280;41173;52.634;-8.666;2024-03-08T18:50:18;145858.75;;;8.08;100.00
55311;BME280;41173;52.634;-8.666;2024-03-08T18:52:45;145829.59;;;7.96;100.00
55311;BME280;41173;52.634;-8.666;2024-03-08T18:55:13;145816.91;;;7.91;100.00
55311;BME280;41173;52.634;-8.666;2024-03-08T18:57:43;145816.91;;;7.91;100.00
55311;BME280;41173;52.634;-8.666;2024-03-08T19:00:16;145819.41;;;7.92;100.00
55311;BME280;41173;52.634;-8.666;2024-03-08T19:03:07;145848.59;;;8.04;100.00
55311;BME280;41173;52.634;-8.666;2024-03-08T19:05:39;145818.16;;;7.91;100.00
55311;BME280;41173;52.634;-8.666;2024-03-08T19:08:11;145772.47;;;7.73;100.00
55311;BME280;41173;52.634;-8.666;2024-03-08T19:10:42;145794.03;;;7.82;100.00
55311;BME280;41173;52.634;-8.666;2024-03-08T19:13:08;145800.41;;;7.84;100.00
55311;BME280;41173;52.634;-8.666;2024-03-08T19:15:39;145791.53;;;7.81;100.00
55311;BME280;41173;52.634;-8.666;2024-03-08T19:18:06;145782.66;;;7.77;100.00
55311;BME280;41173;52.634;-8.666;2024-03-08T19:20:36;145790.25;;;7.80;100.00
55311;BME280;41173;52.634;-8.666;2024-03-08T19:23:03;145811.84;;;7.89;100.00
55311;BME280;41173;52.634;-8.666;2024-03-08T19:25:31;145799.16;;;7.84;100.00
55311;BME280;41173;52.634;-8.666;2024-03-08T19:28:04;145819.41;;;7.92;100.00
55311;BME280;41173;52.634;-8.666;2024-03-08T19:30:32;145816.91;;;7.91;100.00
55311;BME280;41173;52.634;-8.666;2024-03-08T19:32:58;145786.47;;;7.79;100.00
55311;BME280;41173;52.634;-8.666;2024-03-08T19:35:25;145782.66;;;7.77;100.00
55311;BME280;41173;52.634;-8.666;2024-03-08T19:37:53;145839.72;;;8.00;100.00
55311;BME280;41173;52.634;-8.666;2024-03-08T19:40:21;145778.84;;;7.76;100.00
55311;BME280;41173;52.634;-8.666;2024-03-08T19:42:53;145771.22;;;7.72;100.00
55311;BME280;41173;52.634;-8.666;2024-03-08T19:45:20;145730.66;;;7.56;100.00
55311;BME280;41173;52.634;-8.666;2024-03-08T19:47:46;145762.34;;;7.69;100.00
55311;BME280;41173;52.634;-8.666;2024-03-08T19:50:13;145691.31;;;7.40;100.00
55311;BME280;41173;52.634;-8.666;2024-03-08T19:52:48;145725.56;;;7.54;100.00
55311;BME280;41173;52.634;-8.666;2024-03-08T19:55:16;145718.00;;;7.51;100.00
55311;BME280;41173;52.634;-8.666;2024-03-08T19:57:43;145691.31;;;7.40;100.00
55311;BME280;41173;52.634;-8.666;2024-03-08T20:00:20;145678.63;;;7.35;100.00
55311;BME280;41173;52.634;-8.666;2024-03-08T20:02:52;145649.50;;;7.23;100.00
55311;BME280;41173;52.634;-8.666;2024-03-08T20:05:21;145668.50;;;7.31;100.00
55311;BME280;41173;52.634;-8.666;2024-03-08T20:07:47;145685.00;;;7.38;100.00
55311;BME280;41173;52.634;-8.666;2024-03-08T20:10:17;145682.44;;;7.37;100.00
55311;BME280;41173;52.634;-8.666;2024-03-08T20:12:43;145659.63;;;7.27;100.00
55311;BME280;41173;52.634;-8.666;2024-03-08T20:15:11;145659.63;;;7.27;100.00
55311;BME280;41173;52.634;-8.666;2024-03-08T20:17:37;145664.72;;;7.29;100.00
55311;BME280;41173;52.634;-8.666;2024-03-08T20:20:04;145626.66;;;7.14;100.00
55311;BME280;41173;52.634;-8.666;2024-03-08T20:22:30;145645.72;;;7.22;100.00
55311;BME280;41173;52.634;-8.666;2024-03-08T20:24:55;145657.09;;;7.26;100.00
55311;BME280;41173;52.634;-8.666;2024-03-08T20:27:21;145657.09;;;7.26;100.00
55311;BME280;41173;52.634;-8.666;2024-03-08T20:29:49;145678.63;;;7.35;100.00
55311;BME280;41173;52.634;-8.666;2024-03-08T20:32:15;145681.19;;;7.36;100.00
55311;BME280;41173;52.634;-8.666;2024-03-08T20:34:41;145718.00;;;7.51;100.00
55311;BME280;41173;52.634;-8.666;2024-03-08T20:37:07;145673.56;;;7.33;100.00
55311;BME280;41173;52.634;-8.666;2024-03-08T20:39:34;145682.44;;;7.37;100.00
55311;BME280;41173;52.634;-8.666;2024-03-08T20:42:01;145657.09;;;7.26;100.00
55311;BME280;41173;52.634;-8.666;2024-03-08T20:44:30;145663.44;;;7.29;100.00
55311;BME280;41173;52.634;-8.666;2024-03-08T20:46:56;145720.50;;;7.52;100.00
55311;BME280;41173;52.634;-8.666;2024-03-08T20:49:23;145707.81;;;7.47;100.00
55311;BME280;41173;52.634;-8.666;2024-03-08T20:51:48;145753.47;;;7.65;100.00
55311;BME280;41173;52.634;-8.666;2024-03-08T20:54:14;145761.09;;;7.68;100.00
55311;BME280;41173;52.634;-8.666;2024-03-08T20:56:41;145646.97;;;7.22;100.00
55311;BME280;41173;52.634;-8.666;2024-03-08T20:59:06;145631.72;;;7.16;100.00
55311;BME280;41173;52.634;-8.666;2024-03-08T21:01:31;145601.31;;;7.04;100.00
55311;BME280;41173;52.634;-8.666;2024-03-08T21:03:57;145619.06;;;7.11;100.00
55311;BME280;41173;52.634;-8.666;2024-03-08T21:06:24;145586.13;;;6.97;100.00
55311;BME280;41173;52.634;-8.666;2024-03-08T21:08:49;145583.56;;;6.96;100.00
55311;BME280;41173;52.634;-8.666;2024-03-08T21:11:15;145584.81;;;6.97;100.00
55311;BME280;41173;52.634;-8.666;2024-03-08T21:13:41;145617.78;;;7.10;100.00
55311;BME280;41173;52.634;-8.666;2024-03-08T21:16:07;145612.72;;;7.08;100.00
55311;BME280;41173;52.634;-8.666;2024-03-08T21:18:35;145602.59;;;7.04;100.00
55311;BME280;41173;52.634;-8.666;2024-03-08T21:21:02;145608.94;;;7.07;100.00
55311;BME280;41173;52.634;-8.666;2024-03-08T21:23:27;145608.94;;;7.07;100.00
55311;BME280;41173;52.634;-8.666;2024-03-08T21:25:53;145595.00;;;7.01;100.00
55311;BME280;41173;52.634;-8.666;2024-03-08T21:28:18;145608.94;;;7.07;100.00
55311;BME280;41173;52.634;-8.666;2024-03-08T21:30:46;145617.78;;;7.10;100.00
55311;BME280;41173;52.634;-8.666;2024-03-08T21:33:12;145610.19;;;7.07;100.00
55311;BME280;41173;52.634;-8.666;2024-03-08T21:35:39;145595.00;;;7.01;100.00
55311;BME280;41173;52.634;-8.666;2024-03-08T21:38:06;145575.97;;;6.93;100.00
55311;BME280;41173;52.634;-8.666;2024-03-08T21:40:35;145569.63;;;6.91;100.00
55311;BME280;41173;52.634;-8.666;2024-03-08T21:43:04;145574.69;;;6.93;100.00
55311;BME280;41173;52.634;-8.666;2024-03-08T21:45:31;145582.31;;;6.96;100.00
55311;BME280;41173;52.634;-8.666;2024-03-08T21:47:58;145579.75;;;6.95;100.00
55311;BME280;41173;52.634;-8.666;2024-03-08T21:50:26;145558.22;;;6.86;100.00
55311;BME280;41173;52.634;-8.666;2024-03-08T21:52:56;145564.56;;;6.89;100.00
55311;BME280;41173;52.634;-8.666;2024-03-08T21:55:22;145562.03;;;6.88;100.00
55311;BME280;41173;52.634;-8.666;2024-03-08T21:57:50;145535.41;;;6.77;100.00
55311;BME280;41173;52.634;-8.666;2024-03-08T22:00:18;145541.72;;;6.80;100.00
55311;BME280;41173;52.634;-8.666;2024-03-08T22:02:45;145546.78;;;6.82;100.00
55311;BME280;41173;52.634;-8.666;2024-03-08T22:05:14;145546.78;;;6.82;100.00
55311;BME280;41173;52.634;-8.666;2024-03-08T22:07:50;145520.19;;;6.71;100.00
55311;BME280;41173;52.634;-8.666;2024-03-08T22:10:16;145522.75;;;6.72;100.00
55311;BME280;41173;52.634;-8.666;2024-03-08T22:12:52;145512.56;;;6.68;100.00
55311;BME280;41173;52.634;-8.666;2024-03-08T22:15:18;145543.03;;;6.80;100.00
55311;BME280;41173;52.634;-8.666;2024-03-08T22:17:46;145518.94;;;6.70;100.00
55311;BME280;41173;52.634;-8.666;2024-03-08T22:20:14;145510.06;;;6.67;100.00
55311;BME280;41173;52.634;-8.666;2024-03-08T22:22:56;145494.84;;;6.61;100.00
55311;BME280;41173;52.634;-8.666;2024-03-08T22:25:22;145507.50;;;6.66;100.00
55311;BME280;41173;52.634;-8.666;2024-03-08T22:27:48;145492.34;;;6.59;100.00
55311;BME280;41173;52.634;-8.666;2024-03-08T22:30:19;145494.84;;;6.61;100.00
55311;BME280;41173;52.634;-8.666;2024-03-08T22:32:45;145508.81;;;6.66;100.00
55311;BME280;41173;52.634;-8.666;2024-03-08T22:35:12;145502.47;;;6.64;100.00
55311;BME280;41173;52.634;-8.666;2024-03-08T22:37:37;145485.97;;;6.57;100.00
55311;BME280;41173;52.634;-8.666;2024-03-08T22:40:04;145470.78;;;6.51;100.00
55311;BME280;41173;52.634;-8.666;2024-03-08T22:42:39;145472.06;;;6.51;100.00
55311;BME280;41173;52.634;-8.666;2024-03-08T22:45:06;145455.56;;;6.45;100.00
55311;BME280;41173;52.634;-8.666;2024-03-08T22:47:32;145483.47;;;6.56;100.00
55311;BME280;41173;52.634;-8.666;2024-03-08T22:50:00;145478.38;;;6.54;100.00
55311;BME280;41173;52.634;-8.666;2024-03-08T22:52:29;145484.72;;;6.56;100.00
55311;BME280;41173;52.634;-8.666;2024-03-08T22:54:55;145491.03;;;6.59;100.00
55311;BME280;41173;52.634;-8.666;2024-03-08T22:57:21;145482.16;;;6.55;100.00
55311;BME280;41173;52.634;-8.666;2024-03-08T22:59:46;145487.28;;;6.57;100.00
55311;BME280;41173;52.634;-8.666;2024-03-08T23:02:12;145501.19;;;6.63;100.00
55311;BME280;41173;52.634;-8.666;2024-03-08T23:04:42;145485.97;;;6.57;100.00
55311;BME280;41173;52.634;-8.666;2024-03-08T23:07:07;145483.47;;;6.56;100.00
55311;BME280;41173;52.634;-8.666;2024-03-08T23:09:36;145469.50;;;6.50;100.00
55311;BME280;41173;52.634;-8.666;2024-03-08T23:12:02;145461.94;;;6.47;100.00
55311;BME280;41173;52.634;-8.666;2024-03-08T23:14:27;145464.44;;;6.48;100.00
55311;BME280;41173;52.634;-8.666;2024-03-08T23:16:53;145451.75;;;6.43;100.00
55311;BME280;41173;52.634;-8.666;2024-03-08T23:19:19;145413.75;;;6.28;100.00
55311;BME280;41173;52.634;-8.666;2024-03-08T23:21:45;145402.38;;;6.23;100.00
55311;BME280;41173;52.634;-8.666;2024-03-08T23:24:10;145388.41;;;6.17;100.00
55311;BME280;41173;52.634;-8.666;2024-03-08T23:26:36;145407.44;;;6.25;100.00
55311;BME280;41173;52.634;-8.666;2024-03-08T23:29:01;145385.91;;;6.16;100.00
